Time;durP1;ratioP1;P1;durP2;ratioP2;P2;SDS_P1;SDS_P2;PMS_P1;PMS_P2;Temp;Humidity;BMP_temperature;BMP_pressure;BME280_temperature;BME280_humidity;BME280_pressure;Samples;Min_cycle;Max_cycle;Signal;HPM_P1;HPM_P2
2021/01/09 00:00:22;;;;;;;23.60;19.00;;;3.10;99.90;;;;;;5062649;28;20440;-67
2021/01/09 00:02:48;;;;;;;25.53;20.17;;;3.10;99.90;;;;;;5064208;28;20629;-67
2021/01/09 00:05:14;;;;;;;28.57;18.97;;;3.10;99.90;;;;;;5066376;28;20184;-67
2021/01/09 00:07:40;;;;;;;22.60;18.13;;;3.10;99.90;;;;;;5057109;28;20961;-66
2021/01/09 00:10:07;;;;;;;22.77;19.47;;;3.10;99.90;;;;;;5066194;28;20196;-66
2021/01/09 00:12:35;;;;;;;24.73;19.97;;;3.10;99.90;;;;;;5061287;28;20860;-66
2021/01/09 00:15:01;;;;;;;25.70;20.70;;;3.10;99.90;;;;;;5066297;28;20449;-66
2021/01/09 00:17:26;;;;;;;22.80;20.20;;;3.10;99.90;;;;;;5042866;28;21292;-66
2021/01/09 00:19:52;;;;;;;26.70;20.23;;;3.10;99.90;;;;;;5064863;28;20203;-66
2021/01/09 00:22:19;;;;;;;23.17;18.87;;;3.20;99.90;;;;;;5063507;28;20227;-66
2021/01/09 00:24:44;;;;;;;25.97;21.80;;;3.20;99.90;;;;;;5067002;28;20434;-66
2021/01/09 00:27:11;;;;;;;25.20;20.43;;;3.20;99.90;;;;;;5060282;28;20429;-66
2021/01/09 00:29:41;;;;;;;23.27;19.80;;;3.20;99.90;;;;;;5064649;28;20279;-66
2021/01/09 00:32:06;;;;;;;26.60;21.37;;;3.10;99.90;;;;;;5065461;28;20426;-66
2021/01/09 00:34:32;;;;;;;27.17;21.17;;;3.20;99.90;;;;;;5061021;28;20516;-66
2021/01/09 00:36:58;;;;;;;25.00;19.80;;;3.20;99.90;;;;;;5070170;28;20199;-66
2021/01/09 00:39:24;;;;;;;23.13;18.50;;;3.20;99.90;;;;;;5041845;28;20677;-66
2021/01/09 00:41:49;;;;;;;23.97;19.90;;;3.20;99.90;;;;;;5066078;28;20226;-66
2021/01/09 00:44:16;;;;;;;27.53;21.23;;;3.20;99.90;;;;;;5066573;28;20440;-66
2021/01/09 00:46:41;;;;;;;31.20;19.77;;;3.20;99.90;;;;;;5067869;28;20647;-66
2021/01/09 00:49:07;;;;;;;27.10;21.40;;;3.10;99.90;;;;;;5068981;28;20426;-66
2021/01/09 00:51:32;;;;;;;22.63;19.10;;;3.20;99.90;;;;;;5068429;28;20210;-66
2021/01/09 00:53:58;;;;;;;25.40;19.97;;;3.10;99.90;;;;;;5069176;28;20614;-66
2021/01/09 00:56:23;;;;;;;28.63;20.50;;;3.20;99.90;;;;;;5068445;28;20184;-66
2021/01/09 00:58:49;;;;;;;26.53;20.80;;;3.20;99.90;;;;;;5066947;28;20274;-66
2021/01/09 01:01:15;;;;;;;25.80;20.60;;;3.20;99.90;;;;;;5066395;28;20543;-66
2021/01/09 01:03:42;;;;;;;28.20;22.17;;;3.20;99.90;;;;;;5067673;28;20188;-66
2021/01/09 01:06:09;;;;;;;35.77;23.53;;;3.20;99.90;;;;;;5068089;28;20981;-66
2021/01/09 01:08:35;;;;;;;30.37;23.23;;;3.30;99.90;;;;;;5068977;28;20544;-66
2021/01/09 01:11:00;;;;;;;38.40;25.30;;;3.30;99.90;;;;;;5067938;28;21133;-66
2021/01/09 01:13:26;;;;;;;34.37;25.00;;;3.30;99.90;;;;;;5064269;28;20634;-66
2021/01/09 01:15:52;;;;;;;39.97;26.00;;;3.30;99.90;;;;;;5067199;28;20194;-66
2021/01/09 01:18:21;;;;;;;35.53;26.20;;;3.30;99.90;;;;;;5068754;28;20211;-66
2021/01/09 01:20:47;;;;;;;42.17;26.27;;;3.30;99.90;;;;;;5066173;28;20195;-66
2021/01/09 01:23:12;;;;;;;36.63;26.03;;;3.30;99.90;;;;;;5069006;28;20434;-66
2021/01/09 01:25:38;;;;;;;40.10;29.30;;;3.30;99.90;;;;;;5065275;28;20179;-66
2021/01/09 01:28:04;;;;;;;38.40;27.37;;;3.30;99.90;;;;;;5037291;28;20295;-66
2021/01/09 01:30:29;;;;;;;41.70;27.00;;;3.30;99.90;;;;;;5066493;28;20188;-66
2021/01/09 01:32:55;;;;;;;48.23;30.77;;;3.30;99.90;;;;;;5070935;28;20282;-66
2021/01/09 01:35:20;;;;;;;46.40;27.70;;;3.30;99.90;;;;;;5066876;28;20648;-66
2021/01/09 01:37:46;;;;;;;40.27;27.90;;;3.30;99.90;;;;;;5068950;28;20230;-66
2021/01/09 01:40:12;;;;;;;42.60;28.03;;;3.30;99.90;;;;;;5061120;28;20567;-66
2021/01/09 01:42:37;;;;;;;37.57;25.83;;;3.30;99.90;;;;;;5065093;28;20675;-66
2021/01/09 01:45:04;;;;;;;35.90;26.40;;;3.20;99.90;;;;;;5041817;28;20501;-66
2021/01/09 01:47:29;;;;;;;41.17;27.00;;;3.20;99.90;;;;;;5063302;28;20191;-66
2021/01/09 01:49:55;;;;;;;39.60;28.50;;;3.20;99.90;;;;;;5064523;28;20467;-66
2021/01/09 01:52:20;;;;;;;37.70;25.67;;;3.20;99.90;;;;;;5067271;28;20204;-66
2021/01/09 01:54:48;;;;;;;42.57;26.53;;;3.20;99.90;;;;;;5065410;28;20559;-66
2021/01/09 01:57:13;;;;;;;40.37;27.67;;;3.20;99.90;;;;;;5063775;28;20226;-66
2021/01/09 01:59:39;;;;;;;45.30;28.10;;;3.20;99.90;;;;;;5064285;28;20536;-66
2021/01/09 02:02:07;;;;;;;39.00;26.33;;;3.20;99.90;;;;;;5067279;28;20282;-66
2021/01/09 02:04:33;;;;;;;39.70;26.93;;;3.20;99.90;;;;;;5066658;28;20429;-66
2021/01/09 02:07:03;;;;;;;36.03;24.40;;;3.20;99.90;;;;;;5060385;28;20487;-66
2021/01/09 02:09:32;;;;;;;36.33;25.03;;;3.20;99.90;;;;;;5069231;28;20188;-66
2021/01/09 02:12:05;;;;;;;37.27;26.40;;;3.20;99.90;;;;;;5065113;28;20517;-66
2021/01/09 02:14:47;;;;;;;40.00;27.27;;;3.20;99.90;;;;;;5067863;28;20548;-66
2021/01/09 02:17:15;;;;;;;33.40;23.17;;;3.10;99.90;;;;;;5039008;28;20437;-66
2021/01/09 02:19:42;;;;;;;33.23;22.30;;;3.10;99.90;;;;;;5067056;28;20824;-66
2021/01/09 02:22:12;;;;;;;31.50;23.77;;;3.10;99.90;;;;;;5069098;28;20486;-66
2021/01/09 02:24:38;;;;;;;32.23;23.80;;;3.10;99.90;;;;;;5065114;28;20441;-66
2021/01/09 02:27:06;;;;;;;32.30;22.20;;;3.10;99.90;;;;;;5063743;28;20491;-66
2021/01/09 02:29:34;;;;;;;32.10;21.10;;;3.10;99.90;;;;;;5065479;28;20193;-66
2021/01/09 02:32:04;;;;;;;32.77;22.40;;;3.10;99.90;;;;;;5063722;28;20796;-66
2021/01/09 02:34:51;;;;;;;31.93;21.50;;;3.10;99.90;;;;;;5063394;28;20453;-66
2021/01/09 02:37:18;;;;;;;36.70;21.43;;;3.10;99.90;;;;;;5068944;28;20433;-66
2021/01/09 02:39:44;;;;;;;33.03;22.13;;;3.10;99.90;;;;;;5064094;28;20496;-66
2021/01/09 02:42:10;;;;;;;30.97;20.33;;;3.10;99.90;;;;;;5063371;28;20956;-66
2021/01/09 02:44:37;;;;;;;26.33;19.90;;;3.10;99.90;;;;;;5060853;28;20470;-66
2021/01/09 02:47:05;;;;;;;28.63;20.83;;;3.10;99.90;;;;;;5062527;28;20588;-66
2021/01/09 02:49:30;;;;;;;29.40;21.23;;;3.10;99.90;;;;;;5063905;28;20442;-66
2021/01/09 02:51:56;;;;;;;29.53;22.13;;;3.10;99.90;;;;;;5066767;28;20430;-66
2021/01/09 02:54:21;;;;;;;30.10;20.33;;;3.10;99.90;;;;;;5064543;28;20192;-66
2021/01/09 02:56:47;;;;;;;31.37;21.20;;;3.10;99.90;;;;;;5064596;28;20202;-66
2021/01/09 02:59:12;;;;;;;32.07;20.90;;;3.10;99.90;;;;;;5065164;28;20183;-66
2021/01/09 03:01:38;;;;;;;28.43;21.33;;;3.10;99.90;;;;;;5066507;28;20179;-66
2021/01/09 03:04:03;;;;;;;26.87;21.37;;;3.10;99.90;;;;;;5065777;28;20652;-66
2021/01/09 03:06:29;;;;;;;31.77;20.97;;;3.10;99.90;;;;;;5066274;28;20709;-66
2021/01/09 03:08:55;;;;;;;31.50;22.10;;;3.10;99.90;;;;;;5064771;28;20219;-66
2021/01/09 03:11:21;;;;;;;26.50;20.37;;;3.00;99.90;;;;;;5061015;28;20603;-66
2021/01/09 03:13:47;;;;;;;25.50;19.73;;;3.00;99.90;;;;;;5066915;28;20623;-66
2021/01/09 03:16:12;;;;;;;27.30;20.37;;;2.90;99.90;;;;;;5045976;28;20438;-66
2021/01/09 03:18:38;;;;;;;29.70;21.53;;;2.90;99.90;;;;;;5065615;28;20211;-66
2021/01/09 03:21:04;;;;;;;32.77;22.37;;;2.90;99.90;;;;;;5062335;28;20176;-66
2021/01/09 03:23:29;;;;;;;30.10;20.00;;;2.90;99.90;;;;;;5066776;28;20198;-66
2021/01/09 03:25:55;;;;;;;30.83;21.47;;;2.90;99.90;;;;;;5065089;28;20448;-66
2021/01/09 03:28:21;;;;;;;36.53;22.03;;;2.90;99.90;;;;;;5062955;28;20179;-66
2021/01/09 03:30:46;;;;;;;32.77;22.33;;;2.90;99.90;;;;;;5062688;28;20698;-66
2021/01/09 03:33:12;;;;;;;30.97;20.80;;;2.90;99.90;;;;;;5064005;28;20779;-66
2021/01/09 03:35:38;;;;;;;34.93;22.87;;;2.90;99.90;;;;;;5062903;28;20263;-66
2021/01/09 03:38:03;;;;;;;29.20;20.63;;;2.80;99.90;;;;;;5063175;28;20195;-66
2021/01/09 03:40:29;;;;;;;35.23;24.10;;;2.80;99.90;;;;;;5064668;28;20207;-66
2021/01/09 03:42:54;;;;;;;39.40;24.43;;;2.80;99.90;;;;;;5065055;28;20198;-66
2021/01/09 03:45:20;;;;;;;34.37;22.80;;;2.70;99.90;;;;;;5067671;28;20639;-66
2021/01/09 03:47:46;;;;;;;36.47;24.60;;;2.70;99.90;;;;;;5061200;28;20613;-65
2021/01/09 03:50:11;;;;;;;32.60;23.73;;;2.70;99.90;;;;;;5065054;28;20447;-65
2021/01/09 03:52:37;;;;;;;32.30;21.70;;;2.70;99.90;;;;;;5062657;28;20269;-65
2021/01/09 03:55:03;;;;;;;34.27;22.07;;;2.70;99.90;;;;;;5065322;28;20188;-65
2021/01/09 03:57:28;;;;;;;31.50;21.57;;;2.70;99.90;;;;;;5039853;28;20554;-65
2021/01/09 03:59:54;;;;;;;33.53;23.80;;;2.70;99.90;;;;;;5063231;28;20554;-65
2021/01/09 04:02:19;;;;;;;37.10;23.70;;;2.80;99.90;;;;;;5067683;28;20188;-65
2021/01/09 04:04:45;;;;;;;35.90;24.33;;;2.80;99.90;;;;;;5061961;28;20652;-65
2021/01/09 04:07:10;;;;;;;40.87;24.50;;;2.90;99.90;;;;;;5065399;28;20196;-65
2021/01/09 04:09:36;;;;;;;42.30;26.80;;;2.90;99.90;;;;;;5064219;28;20326;-65
2021/01/09 04:12:02;;;;;;;44.03;29.17;;;2.90;99.90;;;;;;5066419;28;20545;-65
2021/01/09 04:14:27;;;;;;;47.53;30.13;;;2.90;99.90;;;;;;5062350;28;20196;-65
2021/01/09 04:16:53;;;;;;;48.53;29.90;;;3.00;99.90;;;;;;5068581;28;20179;-65
2021/01/09 04:19:18;;;;;;;46.17;30.53;;;3.00;99.90;;;;;;5065743;28;20179;-65
2021/01/09 04:21:46;;;;;;;52.87;31.03;;;3.00;99.90;;;;;;5067365;28;20180;-65
2021/01/09 04:24:12;;;;;;;48.80;32.30;;;3.00;99.90;;;;;;5066436;28;20625;-65
2021/01/09 04:26:38;;;;;;;48.07;30.70;;;3.00;99.90;;;;;;5067225;28;20525;-65
2021/01/09 04:29:04;;;;;;;47.33;31.43;;;3.00;99.90;;;;;;5068474;28;20930;-65
2021/01/09 04:31:29;;;;;;;47.07;30.23;;;3.00;99.90;;;;;;5066239;28;20630;-65
2021/01/09 04:33:55;;;;;;;51.73;31.80;;;3.00;99.90;;;;;;5069478;28;20212;-65
2021/01/09 04:36:20;;;;;;;48.27;31.40;;;3.00;99.90;;;;;;5067422;28;20202;-65
2021/01/09 04:38:46;;;;;;;47.23;30.30;;;3.00;99.90;;;;;;5067156;28;20219;-65
2021/01/09 04:41:11;;;;;;;49.13;30.97;;;3.00;99.90;;;;;;5069738;28;20196;-65
2021/01/09 04:43:37;;;;;;;56.30;33.80;;;3.10;99.90;;;;;;5069813;28;20480;-65
2021/01/09 04:46:03;;;;;;;48.53;29.53;;;3.10;99.90;;;;;;5066370;28;20192;-65
2021/01/09 04:48:30;;;;;;;50.60;31.37;;;3.10;99.90;;;;;;5065929;28;20184;-65
2021/01/09 04:50:57;;;;;;;49.73;32.20;;;3.10;99.90;;;;;;5065674;28;20451;-65
2021/01/09 04:53:23;;;;;;;46.90;28.70;;;3.10;99.90;;;;;;5065613;28;21547;-65
2021/01/09 04:55:51;;;;;;;53.00;31.53;;;3.10;99.90;;;;;;5069478;28;20445;-65
2021/01/09 04:58:17;;;;;;;46.70;30.30;;;3.10;99.90;;;;;;5064631;28;20559;-65
2021/01/09 05:00:42;;;;;;;48.37;27.87;;;3.10;99.90;;;;;;5069393;28;21246;-65
2021/01/09 05:03:08;;;;;;;48.90;28.90;;;3.10;99.90;;;;;;5066300;28;20470;-65
2021/01/09 05:05:33;;;;;;;42.57;27.03;;;3.00;99.90;;;;;;5048730;28;20200;-65
2021/01/09 05:07:59;;;;;;;45.13;25.97;;;3.00;99.90;;;;;;5069481;28;20646;-65
2021/01/09 05:10:25;;;;;;;42.33;25.90;;;3.00;99.90;;;;;;5065418;28;20188;-65
2021/01/09 05:12:51;;;;;;;43.93;24.27;;;3.00;99.90;;;;;;5068297;28;20203;-65
2021/01/09 05:15:16;;;;;;;47.53;27.67;;;3.00;99.90;;;;;;5063795;28;20446;-65
2021/01/09 05:17:42;;;;;;;45.70;28.00;;;3.00;99.90;;;;;;5067232;28;20738;-65
2021/01/09 05:20:08;;;;;;;52.47;29.40;;;3.00;99.90;;;;;;5070122;28;20644;-65
2021/01/09 05:22:38;;;;;;;46.97;28.43;;;2.90;99.90;;;;;;5068774;28;20190;-65
2021/01/09 05:25:04;;;;;;;48.87;26.03;;;2.90;99.90;;;;;;5068473;28;20441;-65
2021/01/09 05:27:32;;;;;;;48.70;29.63;;;2.90;99.90;;;;;;5063231;28;20445;-65
2021/01/09 05:29:58;;;;;;;43.87;25.40;;;2.90;99.90;;;;;;5065311;28;20818;-65
2021/01/09 05:32:24;;;;;;;39.23;23.77;;;2.90;99.90;;;;;;5068061;28;20465;-65
2021/01/09 05:34:54;;;;;;;43.37;27.93;;;2.80;99.90;;;;;;5041169;28;20482;-65
2021/01/09 05:37:23;;;;;;;36.33;24.10;;;2.80;99.90;;;;;;5064517;28;20547;-65
2021/01/09 05:39:56;;;;;;;38.60;23.57;;;2.80;99.90;;;;;;5066356;28;20469;-65
2021/01/09 05:42:29;;;;;;;42.93;23.70;;;2.80;99.90;;;;;;5069235;28;20441;-66
2021/01/09 05:44:56;;;;;;;45.43;25.93;;;2.70;99.90;;;;;;5068229;28;20437;-65
2021/01/09 05:47:23;;;;;;;39.00;23.47;;;2.70;99.90;;;;;;5060375;28;20483;-65
2021/01/09 05:49:51;;;;;;;40.30;23.93;;;2.60;99.90;;;;;;5038356;28;20845;-65
2021/01/09 05:52:17;;;;;;;43.73;24.57;;;2.60;99.90;;;;;;5066885;28;20433;-65
2021/01/09 05:54:43;;;;;;;39.50;24.33;;;2.60;99.90;;;;;;5066531;28;20454;-65
2021/01/09 05:57:15;;;;;;;40.20;26.37;;;2.60;99.90;;;;;;5064751;28;20438;-65
2021/01/09 05:59:43;;;;;;;40.33;23.63;;;2.60;99.90;;;;;;5066213;28;20472;-65
2021/01/09 06:02:10;;;;;;;42.60;24.80;;;2.60;99.90;;;;;;5067123;28;20426;-65
2021/01/09 06:04:42;;;;;;;45.30;25.27;;;2.50;99.90;;;;;;5066293;28;20440;-65
2021/01/09 06:07:24;;;;;;;39.13;24.13;;;2.50;99.90;;;;;;5067808;28;20821;-65
2021/01/09 06:10:00;;;;;;;36.97;23.97;;;2.50;99.90;;;;;;5069534;28;20934;-65
2021/01/09 06:12:27;;;;;;;42.70;23.90;;;2.60;99.90;;;;;;5064027;28;20464;-65
2021/01/09 06:14:54;;;;;;;41.50;25.60;;;2.60;99.90;;;;;;5064764;28;20517;-65
2021/01/09 06:17:22;;;;;;;41.93;23.70;;;2.60;99.90;;;;;;5060643;28;20512;-65
2021/01/09 06:19:47;;;;;;;36.90;24.03;;;2.60;99.90;;;;;;5064935;28;20452;-65
2021/01/09 06:22:13;;;;;;;39.27;24.67;;;2.60;99.90;;;;;;5068606;28;20434;-65
2021/01/09 06:24:40;;;;;;;41.33;25.13;;;2.60;99.90;;;;;;5063095;28;20546;-65
2021/01/09 06:27:09;;;;;;;36.40;23.83;;;2.60;99.90;;;;;;5061639;28;20311;-65
2021/01/09 06:29:37;;;;;;;38.87;25.40;;;2.60;99.90;;;;;;5067422;28;20500;-65
2021/01/09 06:32:08;;;;;;;42.17;24.57;;;2.60;99.90;;;;;;5065334;28;20434;-65
2021/01/09 06:34:38;;;;;;;35.23;22.73;;;2.70;99.90;;;;;;5062145;28;20532;-65
2021/01/09 06:37:05;;;;;;;35.80;21.80;;;2.70;99.90;;;;;;5067645;28;20449;-65
2021/01/09 06:39:33;;;;;;;39.27;24.50;;;2.70;99.90;;;;;;5066807;28;20487;-65
2021/01/09 06:42:00;;;;;;;35.10;20.80;;;2.70;99.90;;;;;;5067763;28;20446;-65
2021/01/09 06:44:26;;;;;;;35.33;21.93;;;2.70;99.90;;;;;;5065916;28;20449;-65
2021/01/09 06:46:53;;;;;;;39.13;25.03;;;2.70;99.90;;;;;;5064875;28;20441;-65
2021/01/09 06:49:21;;;;;;;39.53;22.90;;;2.80;99.90;;;;;;5064585;28;20927;-65
2021/01/09 06:51:54;;;;;;;38.10;21.37;;;2.80;99.90;;;;;;5064791;28;20441;-65
2021/01/09 06:54:20;;;;;;;35.10;21.27;;;2.90;99.90;;;;;;5065356;28;20478;-65
2021/01/09 06:56:47;;;;;;;33.40;21.00;;;2.80;99.90;;;;;;5062596;28;20778;-65
2021/01/09 06:59:29;;;;;;;35.97;20.77;;;2.80;99.90;;;;;;5066954;28;20191;-65
2021/01/09 07:02:27;;;;;;;34.53;22.37;;;2.80;99.90;;;;;;5064850;28;20439;-65
2021/01/09 07:04:56;;;;;;;40.80;22.60;;;2.90;99.90;;;;;;5064347;28;20446;-65
2021/01/09 07:07:31;;;;;;;38.10;23.13;;;2.90;99.90;;;;;;5064411;28;20437;-65
2021/01/09 07:10:04;;;;;;;37.07;21.90;;;2.90;99.90;;;;;;5066355;28;20472;-65
2021/01/09 07:12:30;;;;;;;37.80;22.63;;;2.90;99.90;;;;;;5058620;28;20465;-65
2021/01/09 07:15:06;;;;;;;37.53;21.87;;;2.90;99.90;;;;;;5064830;28;20532;-65
2021/01/09 07:17:34;;;;;;;37.53;22.80;;;2.90;99.90;;;;;;5047224;28;20534;-65
2021/01/09 07:20:03;;;;;;;36.93;22.00;;;2.80;99.90;;;;;;5064584;28;21292;-65
2021/01/09 07:22:31;;;;;;;30.07;19.20;;;2.80;99.90;;;;;;5067249;28;20433;-65
2021/01/09 07:24:59;;;;;;;34.00;20.47;;;2.80;99.90;;;;;;5064796;28;20881;-65
2021/01/09 07:27:33;;;;;;;28.03;18.77;;;2.90;99.90;;;;;;5035549;28;20450;-65
2021/01/09 07:29:58;;;;;;;26.20;19.20;;;2.90;99.90;;;;;;5063385;28;20430;-65
2021/01/09 07:32:39;;;;;;;27.00;19.00;;;2.90;99.90;;;;;;5068046;28;20441;-65
2021/01/09 07:35:07;;;;;;;31.07;21.27;;;2.90;99.90;;;;;;5064337;28;20198;-65
2021/01/09 07:37:40;;;;;;;34.43;21.67;;;2.90;99.90;;;;;;5065589;28;20434;-65
2021/01/09 07:40:20;;;;;;;35.10;21.30;;;2.90;99.90;;;;;;5064289;28;20475;-65
2021/01/09 07:42:47;;;;;;;32.90;19.90;;;2.90;99.90;;;;;;5065179;28;20907;-65
2021/01/09 07:45:21;;;;;;;29.57;20.33;;;2.90;99.90;;;;;;5065805;28;20435;-65
2021/01/09 07:47:50;;;;;;;31.67;19.67;;;2.90;99.90;;;;;;5064343;28;20445;-65
2021/01/09 07:50:18;;;;;;;30.77;20.63;;;3.00;99.90;;;;;;5058306;28;20693;-65
2021/01/09 07:52:45;;;;;;;27.80;19.07;;;2.90;99.90;;;;;;5063615;28;21049;-65
2021/01/09 07:55:15;;;;;;;28.10;18.13;;;2.90;99.90;;;;;;5063456;28;20450;-65
2021/01/09 07:57:40;;;;;;;32.50;21.10;;;2.90;99.90;;;;;;5063288;28;20945;-65
2021/01/09 08:00:08;;;;;;;31.70;20.90;;;2.90;99.90;;;;;;5058787;28;20473;-65
2021/01/09 08:02:43;;;;;;;37.40;22.63;;;3.00;99.90;;;;;;5066576;28;20207;-65
2021/01/09 08:05:15;;;;;;;33.50;21.27;;;3.00;99.90;;;;;;5059328;28;22103;-65
2021/01/09 08:07:48;;;;;;;35.57;22.37;;;3.10;99.90;;;;;;5035714;28;20803;-65
2021/01/09 08:10:17;;;;;;;44.97;22.33;;;3.10;99.90;;;;;;5059448;28;20452;-65
2021/01/09 08:12:43;;;;;;;29.43;20.40;;;3.10;99.90;;;;;;5064793;28;21216;-65
2021/01/09 08:15:09;;;;;;;31.33;20.43;;;3.20;99.90;;;;;;5065464;28;20449;-65
2021/01/09 08:17:35;;;;;;;29.70;19.87;;;3.20;99.90;;;;;;5064616;28;20441;-65
2021/01/09 08:20:11;;;;;;;32.40;20.70;;;3.30;99.90;;;;;;5066386;28;20191;-65
2021/01/09 08:23:00;;;;;;;34.03;21.93;;;3.30;99.90;;;;;;5062108;28;20266;-65
2021/01/09 08:25:27;;;;;;;37.40;22.13;;;3.40;99.90;;;;;;5063840;28;20503;-65
2021/01/09 08:27:55;;;;;;;35.03;20.80;;;3.40;99.90;;;;;;5062512;28;20449;-65
2021/01/09 08:30:26;;;;;;;38.03;22.40;;;3.40;99.90;;;;;;5056976;28;20970;-65
2021/01/09 08:33:30;;;;;;;36.17;21.43;;;3.40;99.90;;;;;;5061905;28;20470;-66
2021/01/09 08:35:56;;;;;;;38.57;23.03;;;3.40;99.90;;;;;;5031488;28;20955;-65
2021/01/09 08:38:28;;;;;;;40.77;22.20;;;3.40;99.90;;;;;;5036211;28;20438;-65
2021/01/09 08:41:00;;;;;;;43.07;23.70;;;3.40;99.90;;;;;;5066084;28;20199;-65
2021/01/09 08:43:25;;;;;;;43.53;27.13;;;3.40;99.90;;;;;;5062477;28;20509;-65
2021/01/09 08:45:52;;;;;;;46.63;27.20;;;3.40;99.90;;;;;;5064471;28;20536;-65
2021/01/09 08:48:24;;;;;;;39.10;23.47;;;3.40;99.90;;;;;;5064041;28;20473;-65
2021/01/09 08:51:18;;;;;;;44.63;25.83;;;3.50;99.90;;;;;;5064251;28;20530;-65
2021/01/09 08:54:03;;;;;;;38.37;23.60;;;3.50;99.90;;;;;;5035681;28;21063;-65
2021/01/09 08:56:30;;;;;;;40.47;25.73;;;3.50;99.90;;;;;;5063090;28;20450;-65
2021/01/09 08:59:08;;;;;;;36.17;22.90;;;3.60;99.90;;;;;;5066385;28;20485;-65
2021/01/09 09:01:49;;;;;;;43.47;25.37;;;3.70;99.90;;;;;;5066610;28;20479;-65
2021/01/09 09:04:16;;;;;;;37.93;23.50;;;3.80;99.90;;;;;;5059639;28;20961;-65
2021/01/09 09:06:44;;;;;;;37.47;24.10;;;3.90;99.90;;;;;;5067975;28;20437;-65
2021/01/09 09:09:15;;;;;;;40.77;24.83;;;3.90;99.90;;;;;;5064273;28;20523;-65
2021/01/09 09:11:41;;;;;;;39.60;26.63;;;4.00;99.90;;;;;;5070903;28;20442;-66
2021/01/09 09:14:11;;;;;;;39.17;23.23;;;4.00;99.90;;;;;;5064851;28;20564;-66
2021/01/09 09:16:38;;;;;;;38.73;23.70;;;4.00;99.90;;;;;;5070052;28;20556;-66
2021/01/09 09:19:12;;;;;;;44.20;26.97;;;4.00;99.90;;;;;;5065685;28;21000;-66
2021/01/09 09:21:44;;;;;;;38.83;24.83;;;4.00;99.90;;;;;;5067830;28;20548;-65
2021/01/09 09:24:11;;;;;;;42.47;24.73;;;4.10;99.90;;;;;;5066623;28;20461;-65
2021/01/09 09:26:37;;;;;;;43.83;25.20;;;4.10;99.90;;;;;;5061240;28;20934;-66
2021/01/09 09:29:03;;;;;;;50.83;26.17;;;4.10;99.90;;;;;;5064140;28;20438;-65
2021/01/09 09:31:40;;;;;;;40.30;25.67;;;4.10;99.90;;;;;;5041473;28;20192;-65
2021/01/09 09:34:15;;;;;;;45.07;27.20;;;4.10;99.90;;;;;;5065497;28;20552;-65
2021/01/09 09:36:58;;;;;;;37.83;24.40;;;4.10;99.90;;;;;;5068942;28;20782;-65
2021/01/09 09:39:25;;;;;;;47.13;26.60;;;4.20;99.90;;;;;;5067843;28;20468;-65
2021/01/09 09:41:59;;;;;;;46.57;27.20;;;4.20;99.90;;;;;;5064291;28;20490;-65
2021/01/09 09:44:45;;;;;;;43.17;24.27;;;4.20;99.90;;;;;;5068764;28;20941;-65
2021/01/09 09:47:30;;;;;;;40.40;24.43;;;4.30;99.90;;;;;;5063663;28;20438;-65
2021/01/09 09:49:59;;;;;;;36.83;22.83;;;4.30;99.90;;;;;;5067572;28;20438;-65
2021/01/09 09:52:25;;;;;;;38.50;22.50;;;4.40;99.90;;;;;;5066530;28;20460;-65
2021/01/09 09:55:04;;;;;;;37.67;22.77;;;4.40;99.90;;;;;;5065666;28;20460;-65
2021/01/09 09:57:30;;;;;;;46.30;25.73;;;4.40;99.90;;;;;;5067649;28;20195;-65
2021/01/09 10:00:12;;;;;;;41.23;22.57;;;4.40;99.90;;;;;;5065796;28;20938;-65
2021/01/09 10:02:51;;;;;;;40.70;23.80;;;4.40;99.90;;;;;;5066465;28;20188;-65
2021/01/09 10:05:17;;;;;;;33.37;21.03;;;4.50;99.90;;;;;;5064319;28;20434;-65
2021/01/09 10:07:42;;;;;;;35.93;22.30;;;4.60;99.90;;;;;;5067433;28;20422;-65
2021/01/09 10:10:16;;;;;;;34.57;23.00;;;4.60;99.90;;;;;;5066735;28;20558;-65
2021/01/09 10:12:41;;;;;;;34.60;21.37;;;4.60;99.90;;;;;;5067769;28;20600;-65
2021/01/09 10:15:10;;;;;;;33.73;21.90;;;4.70;99.90;;;;;;5067543;28;20433;-65
2021/01/09 10:17:36;;;;;;;33.10;21.07;;;4.70;99.90;;;;;;5063403;28;20195;-65
2021/01/09 10:20:01;;;;;;;32.37;19.87;;;4.70;99.90;;;;;;5068263;28;20441;-65
2021/01/09 10:22:27;;;;;;;37.03;23.23;;;4.70;99.90;;;;;;5067391;28;20199;-65
2021/01/09 10:24:52;;;;;;;36.80;21.97;;;4.70;99.90;;;;;;5065411;28;20278;-65
2021/01/09 10:27:18;;;;;;;30.83;21.00;;;4.70;99.90;;;;;;5065488;28;20738;-65
2021/01/09 10:29:43;;;;;;;38.03;22.77;;;4.70;99.90;;;;;;5065686;28;20235;-65
2021/01/09 10:32:09;;;;;;;36.40;23.67;;;4.70;99.90;;;;;;5066240;28;20178;-65
2021/01/09 10:34:34;;;;;;;33.07;20.30;;;4.70;99.90;;;;;;5065317;28;20574;-65
2021/01/09 10:37:00;;;;;;;31.77;18.70;;;4.70;99.90;;;;;;5065712;28;20207;-65
2021/01/09 10:39:25;;;;;;;29.77;19.00;;;4.70;99.90;;;;;;5061485;28;20207;-65
2021/01/09 10:41:50;;;;;;;29.67;20.97;;;4.70;99.90;;;;;;5066215;28;20215;-65
2021/01/09 10:44:16;;;;;;;31.13;20.20;;;4.70;99.90;;;;;;5036820;28;20180;-65
2021/01/09 10:46:42;;;;;;;31.80;19.10;;;4.70;99.90;;;;;;5041843;28;20520;-65
2021/01/09 10:49:07;;;;;;;34.53;21.67;;;4.70;99.90;;;;;;5060288;28;20191;-65
2021/01/09 10:51:34;;;;;;;36.60;21.80;;;4.60;99.90;;;;;;5068659;28;20839;-65
2021/01/09 10:54:02;;;;;;;36.97;22.13;;;4.50;99.90;;;;;;5067782;28;20211;-65
2021/01/09 10:56:27;;;;;;;35.63;20.70;;;4.50;99.90;;;;;;5066204;28;20537;-65
2021/01/09 10:58:53;;;;;;;32.57;20.40;;;4.40;99.90;;;;;;5067343;28;20445;-65
2021/01/09 11:01:21;;;;;;;32.67;21.07;;;4.50;99.90;;;;;;5065038;28;20201;-65
2021/01/09 11:03:46;;;;;;;32.03;21.80;;;4.50;99.90;;;;;;5062804;28;20187;-65
2021/01/09 11:06:20;;;;;;;34.97;21.70;;;4.50;99.90;;;;;;5068018;28;20430;-65
2021/01/09 11:08:46;;;;;;;41.20;23.20;;;4.50;99.90;;;;;;5060492;28;20172;-65
2021/01/09 11:11:11;;;;;;;38.77;22.37;;;4.50;99.90;;;;;;5068062;28;20433;-65
2021/01/09 11:13:37;;;;;;;37.07;22.80;;;4.50;99.90;;;;;;5064012;28;20243;-65
2021/01/09 11:16:02;;;;;;;35.70;21.27;;;4.50;99.90;;;;;;5062891;28;20561;-65
2021/01/09 11:18:28;;;;;;;42.37;23.63;;;4.50;99.90;;;;;;5062294;28;20643;-66
2021/01/09 11:20:54;;;;;;;34.80;22.80;;;4.40;99.90;;;;;;5065996;28;20550;-65
2021/01/09 11:23:20;;;;;;;38.50;20.97;;;4.40;99.90;;;;;;5066523;28;20184;-65
2021/01/09 11:25:47;;;;;;;35.90;21.53;;;4.40;99.90;;;;;;5064749;28;21018;-65
2021/01/09 11:28:14;;;;;;;34.43;21.43;;;4.40;99.90;;;;;;5061374;28;20644;-65
2021/01/09 11:30:40;;;;;;;32.87;20.03;;;4.40;99.90;;;;;;5067444;28;20442;-65
2021/01/09 11:33:06;;;;;;;33.37;20.10;;;4.40;99.90;;;;;;5066399;28;20554;-65
2021/01/09 11:35:33;;;;;;;31.43;19.33;;;4.40;99.90;;;;;;5067269;28;20452;-65
2021/01/09 11:37:59;;;;;;;30.93;19.30;;;4.40;99.90;;;;;;5066709;28;20449;-65
2021/01/09 11:40:25;;;;;;;30.30;19.73;;;4.40;99.90;;;;;;5063177;28;20548;-65
2021/01/09 11:42:51;;;;;;;31.37;20.37;;;4.40;99.90;;;;;;5065503;28;20437;-65
2021/01/09 11:45:16;;;;;;;39.23;22.87;;;4.40;99.90;;;;;;5065522;28;20437;-65
2021/01/09 11:47:43;;;;;;;33.63;20.53;;;4.40;99.90;;;;;;5061845;28;20238;-65
2021/01/09 11:50:09;;;;;;;37.10;22.20;;;4.40;99.90;;;;;;5066049;28;20195;-65
2021/01/09 11:52:35;;;;;;;35.77;23.50;;;4.40;99.90;;;;;;5066305;28;20789;-65
2021/01/09 11:55:00;;;;;;;40.80;23.37;;;4.30;99.90;;;;;;5061469;28;20456;-65
2021/01/09 11:57:26;;;;;;;37.03;24.57;;;4.30;99.90;;;;;;5061420;28;20207;-65
2021/01/09 11:59:52;;;;;;;38.60;24.63;;;4.30;99.90;;;;;;5062993;28;20657;-65
2021/01/09 12:02:17;;;;;;;48.30;25.47;;;4.20;99.90;;;;;;5065419;28;20191;-65
2021/01/09 12:04:43;;;;;;;43.60;24.13;;;4.30;99.90;;;;;;5059323;28;20183;-65
2021/01/09 12:07:08;;;;;;;37.07;23.80;;;4.30;99.90;;;;;;5065960;28;20262;-65
2021/01/09 12:09:34;;;;;;;45.73;25.20;;;4.40;99.90;;;;;;5056813;28;20211;-65
2021/01/09 12:11:59;;;;;;;36.67;24.03;;;4.50;99.90;;;;;;5064554;28;20230;-65
2021/01/09 12:14:25;;;;;;;41.07;24.00;;;4.50;99.90;;;;;;5064129;28;20200;-65
2021/01/09 12:16:50;;;;;;;35.70;23.90;;;4.60;99.90;;;;;;5066997;28;20594;-65
2021/01/09 12:19:16;;;;;;;38.27;22.93;;;4.60;99.90;;;;;;5062348;28;20191;-65
2021/01/09 12:21:41;;;;;;;35.07;22.17;;;4.50;99.90;;;;;;5047144;28;20187;-65
2021/01/09 12:24:08;;;;;;;33.73;20.83;;;4.50;99.90;;;;;;5065640;28;20275;-65
2021/01/09 12:26:34;;;;;;;41.47;24.70;;;4.40;99.90;;;;;;5062058;28;20718;-65
2021/01/09 12:29:00;;;;;;;36.53;23.87;;;4.40;99.90;;;;;;5067437;28;20438;-65
2021/01/09 12:31:32;;;;;;;41.73;25.40;;;4.40;99.90;;;;;;5067054;28;20187;-65
2021/01/09 12:33:59;;;;;;;38.40;23.00;;;4.40;99.90;;;;;;5064237;28;20211;-65
2021/01/09 12:36:24;;;;;;;34.53;20.90;;;4.40;99.90;;;;;;5070769;28;20453;-65
2021/01/09 12:38:50;;;;;;;36.20;21.73;;;4.40;99.90;;;;;;5069187;28;20457;-65